createdAt,value
2023-09-27T00:01:56.674Z,9.45
2023-09-27T00:04:59.472Z,8.20
2023-09-27T00:08:02.019Z,8.70
2023-09-27T00:11:04.462Z,8.05
2023-09-27T00:14:07.075Z,9.03
2023-09-27T00:17:09.551Z,11.10
2023-09-27T00:20:15.865Z,8.23
2023-09-27T00:23:18.355Z,10.25
2023-09-27T00:26:20.874Z,7.75
2023-09-27T00:29:24.438Z,6.78
2023-09-27T00:32:26.974Z,9.18
2023-09-27T00:35:29.532Z,7.43
2023-09-27T00:38:32.714Z,13.75
2023-09-27T00:41:35.316Z,6.60
2023-09-27T00:44:38.141Z,10.43
2023-09-27T00:47:41.680Z,11.25
2023-09-27T00:50:44.081Z,9.63
2023-09-27T00:53:50.473Z,13.38
2023-09-27T00:56:53.587Z,8.50
2023-09-27T00:59:58.761Z,7.90
2023-09-27T01:03:03.660Z,8.60
2023-09-27T01:06:06.398Z,10.33
2023-09-27T01:09:08.878Z,8.18
2023-09-27T01:12:11.730Z,7.07
2023-09-27T01:15:14.249Z,6.47
2023-09-27T01:18:16.815Z,7.82
2023-09-27T01:21:20.318Z,9.23
2023-09-27T01:24:23.176Z,11.57
2023-09-27T01:27:25.900Z,7.88
2023-09-27T01:30:34.940Z,7.80
2023-09-27T01:33:38.355Z,7.50
2023-09-27T01:36:40.743Z,7.97
2023-09-27T01:39:43.234Z,8.50
2023-09-27T01:42:45.791Z,10.10
2023-09-27T01:45:48.309Z,8.80
2023-09-27T01:48:52.371Z,9.15
2023-09-27T01:51:55.703Z,10.15
2023-09-27T01:54:58.188Z,9.57
2023-09-27T01:58:01.849Z,8.63
2023-09-27T02:01:05.042Z,8.38
2023-09-27T02:04:07.906Z,7.93
2023-09-27T02:07:10.333Z,14.90
2023-09-27T02:10:13.122Z,9.85
2023-09-27T02:13:15.598Z,11.57
2023-09-27T02:16:18.050Z,12.23
2023-09-27T02:19:20.542Z,14.93
2023-09-27T02:22:24.203Z,9.80
2023-09-27T02:25:27.026Z,9.10
2023-09-27T02:28:29.665Z,18.00
2023-09-27T02:31:32.878Z,10.60
2023-09-27T02:34:35.954Z,11.90
2023-09-27T02:37:40.755Z,9.83
2023-09-27T02:40:43.496Z,9.07
2023-09-27T02:43:46.079Z,8.80
2023-09-27T02:46:48.495Z,12.00
2023-09-27T02:49:50.962Z,12.38
2023-09-27T02:52:53.401Z,9.77
2023-09-27T02:55:55.858Z,10.98
2023-09-27T02:58:58.611Z,12.02
2023-09-27T03:02:01.161Z,12.23
2023-09-27T03:05:08.457Z,12.07
2023-09-27T03:08:11.465Z,10.70
2023-09-27T03:11:14.112Z,12.20
2023-09-27T03:14:16.529Z,9.95
2023-09-27T03:17:19.043Z,13.93
2023-09-27T03:20:22.650Z,14.45
2023-09-27T03:23:26.878Z,10.98
2023-09-27T03:26:29.474Z,7.43
2023-09-27T03:29:31.950Z,9.80
2023-09-27T03:32:35.969Z,9.40
2023-09-27T03:35:38.481Z,9.57
2023-09-27T03:38:42.012Z,7.47
2023-09-27T03:41:44.465Z,7.88
2023-09-27T03:44:48.347Z,10.30
2023-09-27T03:47:51.253Z,13.50
2023-09-27T03:50:56.129Z,10.27
2023-09-27T03:53:58.598Z,8.55
2023-09-27T03:57:01.123Z,9.50
2023-09-27T04:00:08.111Z,9.00
2023-09-27T04:03:15.247Z,10.68
2023-09-27T04:06:17.912Z,15.90
2023-09-27T04:09:20.773Z,7.63
2023-09-27T04:12:23.355Z,13.52
2023-09-27T04:15:25.945Z,9.10
2023-09-27T04:18:28.944Z,12.77
2023-09-27T04:21:31.374Z,12.35
2023-09-27T04:24:33.880Z,13.00
2023-09-27T04:27:36.343Z,8.02
2023-09-27T04:30:38.737Z,10.82
2023-09-27T04:33:45.289Z,9.40
2023-09-27T04:36:48.716Z,11.68
2023-09-27T04:39:51.298Z,8.10
2023-09-27T04:42:53.757Z,9.43
2023-09-27T04:45:56.249Z,10.45
2023-09-27T04:48:58.696Z,9.90
2023-09-27T04:52:01.066Z,9.85
2023-09-27T04:55:03.835Z,16.10
2023-09-27T04:58:07.267Z,13.85
2023-09-27T05:01:11.249Z,11.38
2023-09-27T05:04:13.769Z,7.97
2023-09-27T05:07:21.055Z,10.13
2023-09-27T05:10:23.670Z,10.60
2023-09-27T05:13:26.202Z,11.13
2023-09-27T05:16:28.548Z,11.15
2023-09-27T05:19:31.183Z,10.10
2023-09-27T05:22:35.012Z,12.02
2023-09-27T05:25:37.845Z,15.65
2023-09-27T05:28:41.118Z,8.48
2023-09-27T05:31:47.054Z,16.35
2023-09-27T05:34:49.490Z,11.63
2023-09-27T05:37:51.920Z,12.40
2023-09-27T05:40:54.375Z,9.37
2023-09-27T05:43:56.918Z,14.98
2023-09-27T05:46:59.479Z,14.38
2023-09-27T05:50:02.126Z,12.57
2023-09-27T05:53:04.631Z,13.40
2023-09-27T05:56:07.107Z,22.65
2023-09-27T05:59:10.426Z,13.25
2023-09-27T06:02:18.063Z,17.00
2023-09-27T06:05:20.936Z,14.13
2023-09-27T06:08:24.149Z,10.55
2023-09-27T06:11:26.959Z,11.97
2023-09-27T06:14:29.498Z,14.23
2023-09-27T06:17:32.297Z,9.23
2023-09-27T06:20:34.851Z,11.20
2023-09-27T06:23:37.369Z,12.73
2023-09-27T06:26:42.351Z,10.07
2023-09-27T06:29:45.048Z,11.55
2023-09-27T06:32:48.170Z,8.93
2023-09-27T06:35:50.724Z,10.02
2023-09-27T06:38:53.488Z,8.77
2023-09-27T06:41:56.422Z,10.37
2023-09-27T06:44:59.957Z,8.35
2023-09-27T06:48:02.480Z,9.65
2023-09-27T06:51:06.962Z,9.00
2023-09-27T06:54:09.551Z,8.05
2023-09-27T06:57:12.016Z,9.10
2023-09-27T07:00:25.418Z,8.25
2023-09-27T07:03:34.637Z,7.90
2023-09-27T07:06:37.259Z,8.02
2023-09-27T07:09:41.858Z,5.35
2023-09-27T07:12:44.430Z,6.53
2023-09-27T07:15:47.473Z,8.57
2023-09-27T07:18:50.458Z,6.53
2023-09-27T07:21:53.096Z,5.97
2023-09-27T07:24:55.591Z,6.20
2023-09-27T07:27:58.130Z,5.10
2023-09-27T07:31:00.612Z,7.63
2023-09-27T07:34:03.099Z,8.88
2023-09-27T07:37:06.093Z,7.10
2023-09-27T07:40:13.864Z,7.07
2023-09-27T07:43:16.788Z,7.20
2023-09-27T07:46:20.577Z,4.75
2023-09-27T07:49:24.246Z,7.25
2023-09-27T07:52:26.851Z,7.57
2023-09-27T07:55:33.500Z,6.40
2023-09-27T07:58:43.080Z,5.28
2023-09-27T08:01:45.917Z,5.15
2023-09-27T08:04:49.637Z,5.15
2023-09-27T08:07:52.581Z,5.47
2023-09-27T08:10:55.161Z,6.55
2023-09-27T08:13:57.539Z,5.87
2023-09-27T08:17:00.037Z,5.15
2023-09-27T08:20:13.504Z,4.53
2023-09-27T08:23:16.053Z,10.67
2023-09-27T08:26:18.470Z,4.68
2023-09-27T08:29:22.784Z,5.35
2023-09-27T08:32:25.362Z,6.30
2023-09-27T08:35:28.766Z,3.80
2023-09-27T08:38:31.729Z,3.97
2023-09-27T08:41:34.701Z,4.05
2023-09-27T08:44:37.602Z,5.50
2023-09-27T08:47:43.326Z,4.28
2023-09-27T08:50:46.137Z,3.25
2023-09-27T08:53:48.566Z,3.63
2023-09-27T08:56:52.627Z,3.67
2023-09-27T08:59:56.488Z,5.25
2023-09-27T09:03:02.274Z,4.32
2023-09-27T09:06:11.964Z,5.20
2023-09-27T09:09:15.149Z,4.15
2023-09-27T09:12:18.800Z,4.45
2023-09-27T09:15:49.935Z,5.67
2023-09-27T09:18:56.559Z,3.75
2023-09-27T09:22:01.584Z,4.05
2023-09-27T09:25:04.313Z,4.50
2023-09-27T09:28:10.832Z,7.18
2023-09-27T09:31:27.882Z,4.43
2023-09-27T09:34:32.760Z,3.75
2023-09-27T09:37:36.435Z,4.25
2023-09-27T09:40:58.170Z,4.82
2023-09-27T09:44:17.648Z,3.92
2023-09-27T09:47:20.784Z,3.97
2023-09-27T09:50:23.427Z,5.72
2023-09-27T09:53:27.523Z,5.68
2023-09-27T09:56:36.280Z,4.20
2023-09-27T09:59:52.336Z,4.35
2023-09-27T10:03:03.834Z,6.22
2023-09-27T10:06:07.770Z,6.32
2023-09-27T10:09:16.195Z,4.72
2023-09-27T10:12:22.507Z,5.05
2023-09-27T10:15:27.019Z,4.65
2023-09-27T10:18:31.815Z,3.80
2023-09-27T10:21:35.826Z,8.13
2023-09-27T10:24:43.133Z,3.30
2023-09-27T10:28:01.020Z,4.50
2023-09-27T10:31:07.418Z,4.32
2023-09-27T10:34:29.791Z,4.82
2023-09-27T10:38:01.103Z,7.95
2023-09-27T10:41:04.506Z,5.28
2023-09-27T10:44:07.286Z,4.03
2023-09-27T10:47:10.289Z,4.03
2023-09-27T10:50:12.920Z,4.00
2023-09-27T10:53:15.988Z,4.03
2023-09-27T10:56:19.260Z,5.45
2023-09-27T10:59:22.812Z,4.23
2023-09-27T11:02:30.759Z,5.60
2023-09-27T11:05:33.291Z,3.42
2023-09-27T11:08:35.872Z,3.80
2023-09-27T11:11:38.395Z,3.85
2023-09-27T11:14:48.930Z,3.83
2023-09-27T11:17:57.587Z,5.18
2023-09-27T11:21:12.253Z,4.70
2023-09-27T11:24:16.621Z,4.68
2023-09-27T11:27:22.515Z,3.97
2023-09-27T11:30:26.810Z,4.33
2023-09-27T11:33:34.870Z,5.00
2023-09-27T11:36:48.116Z,4.30
2023-09-27T11:39:52.306Z,4.88
2023-09-27T11:42:54.745Z,6.60
2023-09-27T11:45:58.823Z,3.20
2023-09-27T11:49:09.550Z,6.32
2023-09-27T11:52:12.543Z,5.73
2023-09-27T11:55:15.894Z,3.63
2023-09-27T11:58:18.257Z,4.38
2023-09-27T12:01:23.365Z,4.90
2023-09-27T12:04:26.087Z,6.55
2023-09-27T12:07:29.008Z,4.45
2023-09-27T12:10:32.158Z,3.58
2023-09-27T12:13:34.577Z,4.60
2023-09-27T12:16:37.054Z,5.60
2023-09-27T12:19:40.020Z,5.68
2023-09-27T12:22:42.923Z,3.20
2023-09-27T12:25:45.365Z,4.32
2023-09-27T12:28:47.995Z,4.50
2023-09-27T12:31:50.790Z,4.63
2023-09-27T12:34:53.712Z,4.72
2023-09-27T12:37:56.353Z,2.92
2023-09-27T12:41:01.651Z,4.13
2023-09-27T12:44:04.574Z,5.72
2023-09-27T12:47:07.081Z,5.25
2023-09-27T12:50:09.760Z,2.78
2023-09-27T12:53:12.332Z,3.03
2023-09-27T12:56:16.110Z,6.72
2023-09-27T12:59:19.931Z,6.85
2023-09-27T13:02:22.489Z,3.03
2023-09-27T13:05:25.061Z,3.85
2023-09-27T13:08:27.734Z,3.25
2023-09-27T13:11:30.415Z,4.40
2023-09-27T13:14:32.955Z,3.45
2023-09-27T13:17:35.549Z,3.67
2023-09-27T13:20:38.312Z,3.13
2023-09-27T13:23:42.458Z,3.00
2023-09-27T13:26:45.093Z,4.20
2023-09-27T13:29:47.590Z,3.08
2023-09-27T13:32:50.167Z,3.13
2023-09-27T13:35:52.985Z,5.97
2023-09-27T13:38:55.735Z,3.28
2023-09-27T13:41:58.484Z,3.53
2023-09-27T13:45:01.081Z,3.00
2023-09-27T13:48:04.864Z,2.97
2023-09-27T13:51:07.456Z,4.43
2023-09-27T13:54:09.870Z,2.60
2023-09-27T13:57:12.271Z,8.82
2023-09-27T14:00:16.881Z,3.05
2023-09-27T14:03:19.526Z,6.87
2023-09-27T14:06:22.274Z,2.95
2023-09-27T14:09:24.812Z,3.35
2023-09-27T14:12:27.295Z,4.50
2023-09-27T14:15:29.874Z,3.67
2023-09-27T14:18:32.460Z,3.90
2023-09-27T14:21:35.641Z,2.92
2023-09-27T14:24:38.279Z,3.33
2023-09-27T14:27:40.776Z,3.78
2023-09-27T14:30:43.185Z,2.90
2023-09-27T14:33:45.712Z,4.50
2023-09-27T14:36:48.386Z,3.90
2023-09-27T14:39:50.958Z,3.70
2023-09-27T14:42:53.306Z,3.80
2023-09-27T14:45:55.902Z,5.47
2023-09-27T14:48:58.507Z,4.30
2023-09-27T14:52:01.006Z,4.18
2023-09-27T14:55:04.358Z,5.60
2023-09-27T14:58:07.157Z,4.95
2023-09-27T15:01:09.679Z,4.93
2023-09-27T15:04:14.188Z,4.20
2023-09-27T15:07:18.086Z,3.95
2023-09-27T15:10:21.654Z,2.58
2023-09-27T15:13:24.280Z,3.60
2023-09-27T15:16:26.934Z,4.00
2023-09-27T15:19:29.532Z,3.65
2023-09-27T15:22:32.061Z,4.18
2023-09-27T15:25:34.464Z,4.03
2023-09-27T15:28:36.958Z,4.50
2023-09-27T15:31:39.527Z,2.90
2023-09-27T15:34:42.164Z,3.70
2023-09-27T15:37:54.629Z,4.97
2023-09-27T15:40:57.391Z,3.22
2023-09-27T15:43:59.909Z,3.72
2023-09-27T15:47:02.417Z,3.20
2023-09-27T15:50:05.743Z,3.70
2023-09-27T15:53:08.155Z,3.70
2023-09-27T15:56:11.881Z,4.23
2023-09-27T15:59:14.420Z,4.57
2023-09-27T16:02:16.927Z,4.35
2023-09-27T16:05:19.490Z,3.53
2023-09-27T16:08:24.402Z,8.02
2023-09-27T16:11:31.028Z,7.30
2023-09-27T16:14:33.538Z,4.93
2023-09-27T16:17:37.719Z,2.80
2023-09-27T16:20:43.548Z,3.63
2023-09-27T16:23:45.976Z,6.93
2023-09-27T16:26:49.660Z,3.03
2023-09-27T16:29:52.110Z,4.47
2023-09-27T16:32:55.756Z,6.75
2023-09-27T16:35:58.806Z,4.27
2023-09-27T16:39:04.014Z,3.38
2023-09-27T16:42:06.393Z,6.20
2023-09-27T16:45:09.577Z,5.38
2023-09-27T16:48:12.025Z,5.95
2023-09-27T16:51:14.617Z,5.55
2023-09-27T16:54:17.138Z,5.65
2023-09-27T16:57:21.657Z,4.10
2023-09-27T17:00:24.187Z,7.40
2023-09-27T17:03:26.731Z,3.75
2023-09-27T17:06:29.169Z,5.00
2023-09-27T17:09:31.725Z,5.05
2023-09-27T17:12:34.260Z,5.57
2023-09-27T17:15:36.964Z,5.35
2023-09-27T17:18:39.381Z,4.80
2023-09-27T17:21:42.086Z,6.35
2023-09-27T17:24:44.846Z,7.15
2023-09-27T17:27:47.614Z,12.10
2023-09-27T17:30:52.135Z,8.00
2023-09-27T17:33:55.666Z,4.60
2023-09-27T17:36:58.391Z,5.97
2023-09-27T17:40:07.851Z,5.20
2023-09-27T17:43:10.423Z,5.45
2023-09-27T17:46:23.506Z,7.80
2023-09-27T17:49:27.512Z,12.38
2023-09-27T17:52:30.048Z,17.00
2023-09-27T17:55:32.825Z,15.48
2023-09-27T17:58:36.480Z,10.20
2023-09-27T18:01:39.285Z,11.02
2023-09-27T18:04:42.014Z,15.18
2023-09-27T18:07:45.292Z,11.07
2023-09-27T18:10:51.295Z,9.55
2023-09-27T18:13:54.111Z,12.35
2023-09-27T18:16:57.598Z,9.07
2023-09-27T18:20:01.409Z,7.15
2023-09-27T18:23:04.554Z,13.93
2023-09-27T18:26:07.032Z,12.55
2023-09-27T18:29:10.223Z,13.77
2023-09-27T18:32:12.927Z,13.65
2023-09-27T18:35:15.621Z,20.70
2023-09-27T18:38:18.372Z,13.83
2023-09-27T18:41:21.132Z,10.38
2023-09-27T18:44:24.251Z,17.45
2023-09-27T18:47:27.476Z,12.63
2023-09-27T18:50:30.623Z,9.73
2023-09-27T18:53:33.423Z,12.45
2023-09-27T18:56:36.273Z,8.05
2023-09-27T18:59:40.105Z,12.40
2023-09-27T19:02:43.218Z,26.63
2023-09-27T19:05:46.030Z,23.40
2023-09-27T19:08:49.076Z,39.57
2023-09-27T19:11:54.362Z,27.98
2023-09-27T19:14:57.189Z,34.65
2023-09-27T19:17:59.964Z,40.90
2023-09-27T19:21:02.539Z,44.15
2023-09-27T19:24:06.537Z,46.47
2023-09-27T19:27:09.298Z,47.70
2023-09-27T19:30:16.019Z,31.43
2023-09-27T19:33:18.533Z,21.98
2023-09-27T19:36:21.624Z,13.48
2023-09-27T19:39:24.066Z,9.47
2023-09-27T19:42:26.565Z,12.60
2023-09-27T19:45:29.056Z,12.25
2023-09-27T19:48:52.192Z,6.85
2023-09-27T19:51:55.318Z,7.70
2023-09-27T19:54:58.240Z,5.70
2023-09-27T19:58:01.504Z,6.68
2023-09-27T20:01:05.160Z,9.27
2023-09-27T20:04:07.958Z,7.15
2023-09-27T20:07:10.415Z,6.40
2023-09-27T20:10:12.971Z,9.33
2023-09-27T20:13:15.481Z,8.68
2023-09-27T20:16:17.979Z,6.82
2023-09-27T20:19:20.565Z,6.90
2023-09-27T20:22:23.056Z,6.75
2023-09-27T20:25:25.645Z,6.40
2023-09-27T20:28:28.152Z,6.57
2023-09-27T20:31:31.413Z,9.30
2023-09-27T20:34:33.907Z,7.55
2023-09-27T20:37:36.313Z,10.05
2023-09-27T20:40:38.998Z,7.60
2023-09-27T20:43:41.442Z,6.95
2023-09-27T20:46:43.961Z,7.25
2023-09-27T20:49:46.456Z,8.32
2023-09-27T20:52:48.953Z,8.15
2023-09-27T20:55:53.927Z,9.48
2023-09-27T20:58:56.397Z,9.75
2023-09-27T21:01:59.536Z,5.87
2023-09-27T21:05:02.081Z,11.23
2023-09-27T21:08:04.938Z,6.28
2023-09-27T21:11:07.528Z,9.70
2023-09-27T21:14:10.050Z,7.22
2023-09-27T21:17:12.592Z,7.68
2023-09-27T21:20:15.139Z,7.88
2023-09-27T21:23:17.539Z,7.25
2023-09-27T21:26:20.459Z,6.13
2023-09-27T21:29:22.914Z,9.13
2023-09-27T21:32:25.420Z,7.10
2023-09-27T21:35:27.956Z,8.98
2023-09-27T21:38:31.357Z,8.65
2023-09-27T21:41:33.778Z,9.33
2023-09-27T21:44:36.205Z,6.78
2023-09-27T21:47:38.564Z,6.22
2023-09-27T21:50:40.901Z,4.60
2023-09-27T21:53:43.837Z,7.80
2023-09-27T21:56:46.295Z,5.50
2023-09-27T21:59:48.735Z,10.40
2023-09-27T22:02:51.275Z,4.70
2023-09-27T22:05:53.735Z,6.20
2023-09-27T22:08:58.294Z,7.50
2023-09-27T22:12:00.738Z,6.73
2023-09-27T22:15:07.174Z,7.70
2023-09-27T22:18:11.510Z,7.50
2023-09-27T22:21:19.647Z,4.90
2023-09-27T22:24:25.512Z,6.72
2023-09-27T22:27:28.076Z,6.93
2023-09-27T22:30:31.537Z,7.93
2023-09-27T22:33:35.522Z,3.90
2023-09-27T22:36:52.043Z,6.30
2023-09-27T22:40:08.396Z,6.03
2023-09-27T22:43:17.419Z,8.23
2023-09-27T22:46:21.311Z,6.88
2023-09-27T22:49:24.622Z,8.70
2023-09-27T22:52:27.137Z,6.78
2023-09-27T22:55:29.614Z,6.13
2023-09-27T22:58:33.972Z,6.70
2023-09-27T23:01:37.040Z,7.10
2023-09-27T23:04:41.300Z,7.43
2023-09-27T23:07:43.929Z,7.18
2023-09-27T23:10:48.963Z,6.80
2023-09-27T23:14:05.914Z,10.17
2023-09-27T23:17:29.024Z,7.60
2023-09-27T23:20:32.412Z,7.18
2023-09-27T23:23:37.919Z,7.60
2023-09-27T23:26:52.720Z,5.65
2023-09-27T23:29:57.144Z,7.82
2023-09-27T23:33:01.454Z,5.63
2023-09-27T23:36:04.620Z,11.17
2023-09-27T23:39:18.153Z,5.65
2023-09-27T23:42:24.512Z,8.85
2023-09-27T23:45:27.054Z,6.27
2023-09-27T23:48:29.429Z,7.63
2023-09-27T23:51:33.626Z,6.85
2023-09-27T23:54:36.056Z,5.38
2023-09-27T23:57:41.031Z,6.70
